Currently 56°F in Fallbrook, California, USA
56°F
65°F / 54°F
calm
0.00"
Monday, December 10, 2018 6:24 PM PST

Fallbrook, California Weather Summary
Last 36 Hours

Temperature Winds Hourly Humidity Dewpoint
Time Report Norm Report Norm Max Gusts Precip. Rpt. Norm Rpt. Norm Pressure
1Mon 06:24 PM  56.4°F  56°F  calm  calm  none  0.00"  100%  78%  56°F  49°F  30.03"
Mon 06:00 PM  56.9°F  57°F  calm  1 mph  1 mph  0.00"  98%  77%  56°F  49°F  30.04"
Mon 05:00 PM  59.6°F  58°F  calm  calm  6 mph  0.00"  86%  73%  55°F  50°F  30.03"
Mon 04:00 PM  64.3°F  62°F  calm  1 mph  none  0.00"  65%  65%  52°F  50°F  30.01"
Mon 03:00 PM  65.1°F  65°F  calm  2 mph  5 mph  0.00"  59%  59%  50°F  49°F  30.02"
2Mon 02:19 PM  65.3°F  66°F  1 mph SW  3 mph  5 mph  ----  63%  56%  52°F  49°F  30.03"
Mon 02:00 PM  65.2°F  66°F  calm  3 mph  2 mph  0.00"  61%  55%  51°F  49°F  30.02"
Mon 01:00 PM  64.1°F  67°F  calm  2 mph  3 mph  0.00"  63%  53%  51°F  48°F  30.04"
Mon 12:00 PM  63.0°F  66°F  calm  2 mph  none  0.00"  71%  53%  53°F  48°F  30.05"
Mon 11:00 AM  60.4°F  64°F  calm  2 mph  none  0.00"  70%  57%  50°F  48°F  30.08"
Mon 10:00 AM  57.9°F  61°F  calm  1 mph  5 mph  0.00"  72%  62%  49°F  47°F  30.11"
Mon 09:00 AM  56.7°F  57°F  calm  1 mph  none  0.00"  79%  67%  50°F  46°F  30.12"
Mon 08:00 AM  53.9°F  53°F  calm  1 mph  none  0.00"  77%  71%  47°F  43°F  30.11"
3Mon 07:42 AM  53.5°F  52°F  calm  1 mph  none  ----  77%  72%  46°F  43°F  30.10"
Mon 07:00 AM  55.2°F  51°F  calm  1 mph  none  0.00"  72%  72%  46°F  42°F  30.10"
Mon 06:00 AM  54.8°F  51°F  calm  1 mph  5 mph  0.00"  72%  72%  46°F  42°F  30.10"
Mon 05:00 AM  56.0°F  52°F  2 mph NE  1 mph  4 mph  0.00"  70%  72%  46°F  43°F  30.09"
Mon 04:00 AM  55.8°F  52°F  calm  1 mph  8 mph  0.00"  71%  72%  46°F  43°F  30.10"
Mon 03:00 AM  57.5°F  52°F  4 mph E  1 mph  6 mph  0.00"  69%  73%  47°F  44°F  30.11"
Mon 02:00 AM  56.0°F  52°F  calm  1 mph  5 mph  0.00"  71%  74%  46°F  44°F  30.12"
Mon 01:00 AM  56.7°F  52°F  calm  1 mph  6 mph  0.00"  72%  75%  47°F  44°F  30.13"
Mon 12:00 AM  56.5°F  53°F  calm  1 mph  6 mph  0.00"  75%  76%  48°F  45°F  30.13"
Sun 11:00 PM  55.6°F  53°F  calm  1 mph  3 mph  0.00"  93%  76%  53°F  46°F  30.17"
Sun 10:00 PM  56.4°F  54°F  calm  1 mph  none  0.00"  96%  77%  55°F  47°F  30.19"
Sun 09:00 PM  56.7°F  54°F  calm  1 mph  4 mph  0.00"  96%  78%  56°F  48°F  30.19"
Sun 08:00 PM  57.1°F  55°F  calm  1 mph  none  0.00"  95%  79%  56°F  48°F  30.19"
Sun 07:00 PM  59.2°F  56°F  calm  calm  none  0.00"  85%  78%  54°F  49°F  30.19"
Sun 06:00 PM  60.0°F  57°F  calm  1 mph  4 mph  0.00"  83%  76%  55°F  49°F  30.18"
Sun 05:00 PM  61.0°F  59°F  calm  1 mph  5 mph  0.00"  81%  72%  55°F  49°F  30.19"
Sun 04:00 PM  64.3°F  62°F  4 mph SE  2 mph  8 mph  0.00"  75%  63%  56°F  49°F  30.17"
Sun 03:00 PM  67.3°F  65°F  2 mph W  3 mph  9 mph  0.00"  60%  58%  52°F  49°F  30.17"
Sun 02:00 PM  72.8°F  66°F  1 mph NE  3 mph  6 mph  0.00"  43%  55%  48°F  49°F  30.16"
Sun 01:00 PM  72.2°F  67°F  2 mph NE  2 mph  7 mph  0.00"  40%  52%  46°F  48°F  30.17"
Sun 12:00 PM  71.2°F  66°F  4 mph NW  2 mph  6 mph  0.00"  46%  52%  49°F  47°F  30.22"
Sun 11:00 AM  69.4°F  64°F  3 mph E  2 mph  5 mph  0.00"  49%  56%  49°F  47°F  30.27"
Sun 10:00 AM  64.8°F  61°F  calm  1 mph  5 mph  0.00"  62%  61%  51°F  47°F  30.29"
Sun 09:00 AM  62.7°F  57°F  2 mph NE  1 mph  6 mph  0.00"  67%  66%  51°F  46°F  30.30"
Sun 08:00 AM  56.4°F  53°F  calm  1 mph  5 mph  0.00"  76%  70%  49°F  43°F  30.29"
Sun 07:00 AM  54.5°F  51°F  calm  1 mph  1 mph  0.00"  80%  71%  48°F  42°F  30.28"

  1. Current weather data. No green row appears if the current weather data is also the high or low for the current day.
  2. High temperature for the current day.
  3. Low temperature for the current day.

The Fallbrook weather pages are a service of WeatherCurrents. Fallbrook, California is located in northern San Diego County, close to I15 and Camp Pendleton, and is home to ranches, avocado and citrus groves, and plant nurseries.
Copyright ©Mon Dec 10 18:25:14 PST 2018  WeatherCurrents. All rights reserved. - Submit questions and comments - Privacy Policy

This page automatically refreshes every 10 minutes.